Inglewood, Washington
Current Conditions -  °F | °C
As of 12:53 AM on Thursday 27 Nov 2014 (Local Time) from KPAE Reporting Station
Overcast Overcast  
Wind Chill: 56°   Ceiling: 3600
Heat Index: 56°   Visibility: 10mi
Dew Point: 46°   Wind: 22mph
Humidity: 69%   Direction: 200°SSW
Pressure: 29.86"   Gusts: 35mph
Location:  47.7527°N, 122.215°W
Report Text: KPAE 270853Z AUTO 20019G30KT 10SM OVC036 13/08 A2986 RMK AO2 PK WND 19031/0846 SLP111 60000 T01330078 58006
Loading
Personal Weather Stations






























Interactive Weather Map New forecast layout! Learn more

10-Day Weather Forecast

Advertisements
Track Severe Weather on mobile